• Join FlightAware (Why Join?)
  • Login
  • US Flag 
04:59AM EDT


 

Airport Tracker/Info


-or-


 

Live Flight TrackerFlight Track Log ✈ N1727L ✈ 02-Dec-2013 ✈ KDAL - KTYR

Flight Track Log - Related Links

Times and Time Zones

All times are in EST time to prevent confusion due to time zone crossing. See the N1727L flight status page for this flight to view local times or setup timezone preferences in your user account.

Time Position Orientation Groundspeed Altitude Reporting Facility
EST Latitude Longitude Course Direction KTS MPH feet Rate Location/Type
10:42AM 32.6736 -96.3433 112° Southeast 141 162 3,500  Level Fort Worth Center
10:43AM 32.6572 -96.2942 112° Southeast 149 171 3,500  Level Fort Worth Center
10:44AM 32.6417 -96.2475 112° Southeast 152 175 3,500  Level Fort Worth Center
10:45AM 32.6244 -96.1978 112° Southeast 152 175 3,500  Level Fort Worth Center
10:46AM 32.6089 -96.1514 112° Southeast 152 175 3,500  Level Fort Worth Center
10:47AM 32.5917 -96.1022 113° Southeast 151 174 3,500  Level Fort Worth Center
10:48AM 32.5758 -96.0550 112° Southeast 153 176 3,500  Level Fort Worth Center
10:49AM 32.5664 -96.0019 102° East 152 175 3,500  Level Fort Worth Center
10:50AM 32.5619 -95.9511 96° East 155 178 3,500  Level Fort Worth Center
10:51AM 32.5533 -95.8981 101° East 153 176 3,500  Level Fort Worth Center
10:52AM 32.5461 -95.8483 100° East 154 177 3,500  Level Fort Worth Center
10:53AM 32.5406 -95.7978 97° East 156 180 3,500 -120 Level Fort Worth Center
10:54AM 32.5317 -95.7436 101° East 156 180 3,300 -300 Descending Fort Worth Center
10:56AM 32.5294 -95.6967 93° East 165 190 3,000 -300 Descending Fort Worth Center
10:57AM 32.4970 -95.6696 145° Southeast  Level FlightAware Approximate
11:04AM 32.3500 -95.4000 121° Southeast  Level FlightAware Approximate
11:05AM 32.3538 -95.4027 121° Southeast  Level Estimated
11:06AM 32.3500 -95.4000 121° Southeast  Level FlightAware Approximate
11:07AM 32.3538 -95.4027 121° Southeast  Level Estimated
11:08AM 32.3500 -95.4000 121° Southeast  Level FlightAware Approximate
11:09AM 32.3538 -95.4027 121° Southeast  Level Estimated